tititudorancea.com
Station Historical Data
Daily Summary for December 1, 2018 Units:  Metric    English   Both
« Previous Day
Next Day »
Daily Weekly Monthly Yearly Custom
  High: Low: Average:
Temperature: -17.8 °C 7.2 °C 20.2 °C
Dew Point: -17.8 °C 0.7 °C 7.1 °C
Humidity: Humidity % 15 % 53 %
Wind Speed: 0 km/h 0 km/h 21.7 km/h
Wind Gust: 0 km/h - -
Wind:- - West
Pressure: 0 hPa 995.5 hPa -
Precipitation: 0.41 mm    
Historical Graphs
 
 
Ararat weather Find more about Weather in Ararat, AU


 



 


Tabular Data for December 1, 2018
Time Temperature Dew Point Pressure Wind Wind Speed Wind Gust Humidity Rainfall Rate (Hourly)
-17.8 °C -17.8 °C 0 hPa Calm     Humidity % 0 mm
00:04 11.1 °C 8.3 °C 1010.7 hPa North 3.7 km/h 2.7 km/h 83 % 0 mm
00:09 11 °C 8.4 °C 1010.7 hPa Calm     84 % 0 mm
00:14 10.9 °C 8.4 °C 1010.7 hPa Calm   0.3 km/h 85 % 0 mm
00:19 10.8 °C 8.4 °C 1010.7 hPa SSW 3.7 km/h 2.7 km/h 85 % 0 mm
00:24 10.8 °C 8.6 °C 1010.7 hPa North 4.8 km/h 2.4 km/h 86 % 0 mm
00:29 10.8 °C 8.6 °C 1010.4 hPa North 3.7 km/h 2.3 km/h 86 % 0 mm
00:34 10.8 °C 8.7 °C 1010.4 hPa SSW 5.6 km/h 4.2 km/h 87 % 0 mm
00:39 10.9 °C 8.8 °C 1010.4 hPa SSW 5.6 km/h 2.4 km/h 87 % 0 mm
00:44 10.9 °C 8.8 °C 1010.4 hPa SSW 3.7 km/h 2.1 km/h 87 % 0 mm
00:49 10.8 °C 8.6 °C 1010 hPa SSW 5.6 km/h   86 % 0 mm
00:54 10.8 °C 8.7 °C 1010 hPa SSW 5.6 km/h 4.3 km/h 87 % 0 mm
00:59 10.8 °C 8.7 °C 1010 hPa SSW 5.6 km/h 5 km/h 87 % 0 mm
01:04 10.8 °C 8.7 °C 1010 hPa SSW 5.6 km/h 2.9 km/h 87 % 0 mm
01:09 10.7 °C 8.7 °C 1010 hPa SSW 3.7 km/h 2.3 km/h 87 % 0 mm
01:14 10.7 °C 8.6 °C 1010 hPa SSW 5.6 km/h 1.9 km/h 87 % 0 mm
01:19 10.7 °C 8.6 °C 1010 hPa SSW 5.6 km/h 2.9 km/h 87 % 0 mm
01:24 10.6 °C 8.5 °C 1010 hPa SSW 5.6 km/h 4.2 km/h 87 % 0 mm
01:29 10.6 °C 8.6 °C 1010 hPa SSW 5.6 km/h 2.4 km/h 87 % 0 mm
01:34 10.6 °C 8.5 °C 1010 hPa Calm     87 % 0 mm
01:39 10.5 °C 8.4 °C 1010 hPa SSW 3.7 km/h 1 km/h 87 % 0 mm
01:44 10.3 °C 8.3 °C 1010 hPa North 3.7 km/h 2.3 km/h 87 % 0 mm
01:49 10.3 °C 8.2 °C 1009.7 hPa SSW 3.7 km/h 2.6 km/h 87 % 0 mm
01:54 10.2 °C 8.2 °C 1009.7 hPa Calm     87 % 0 mm
01:59 10.1 °C 8 °C 1009.7 hPa Calm     87 % 0 mm
02:04 9.9 °C 7.8 °C 1009.7 hPa Calm     87 % 0 mm
02:09 9.8 °C 7.7 °C 1009.4 hPa Calm     87 % 0 mm
02:14 9.7 °C 7.8 °C 1009.4 hPa Calm     88 % 0 mm
02:19 9.6 °C 7.7 °C 1009 hPa North 1.9 km/h   88 % 0 mm
02:24 9.3 °C 7.4 °C 1009 hPa Calm     88 % 0 mm
02:29 9.2 °C 7.3 °C 1009 hPa Calm     88 % 0 mm
02:34 9.1 °C 7.2 °C 1009 hPa Calm     88 % 0 mm
02:39 8.9 °C 7 °C 1008.7 hPa Calm     88 % 0 mm
02:44 8.7 °C 7 °C 1008.7 hPa Calm     89 % 0 mm
02:49 8.6 °C 6.7 °C 1008.7 hPa Calm     88 % 0 mm
02:54 8.6 °C 7 °C 1008.7 hPa Calm     90 % 0 mm
02:59 8.5 °C 6.9 °C 1008.7 hPa Calm     90 % 0 mm
03:04 8.4 °C 6.8 °C 1008.4 hPa Calm     90 % 0 mm
03:09 8.3 °C 6.8 °C 1008.4 hPa Calm     90 % 0 mm
03:14 8.3 °C 6.7 °C 1008.4 hPa Calm     90 % 0 mm
03:19 8.1 °C 6.6 °C 1008.4 hPa Calm     90 % 0 mm
03:24 7.9 °C 6.4 °C 1008.4 hPa Calm     90 % 0 mm
03:29 7.8 °C 6.2 °C 1008.4 hPa Calm     90 % 0 mm
03:34 7.7 °C 6.1 °C 1008.4 hPa Calm     90 % 0 mm
03:39 7.7 °C 6.3 °C 1008 hPa Calm     91 % 0 mm
03:44 7.6 °C 6.2 °C 1008 hPa Calm     91 % 0 mm
03:49 7.5 °C 6.1 °C 1008 hPa Calm     91 % 0 mm
03:54 7.3 °C 5.9 °C 1008 hPa Calm     91 % 0 mm
03:59 7.2 °C 5.8 °C 1008 hPa Calm     91 % 0 mm
04:04 7.2 °C 5.8 °C 1008 hPa Calm     91 % 0 mm
04:09 7.2 °C 6 °C 1008 hPa Calm     92 % 0 mm
04:14 7.2 °C 5.9 °C 1007.7 hPa Calm     92 % 0 mm
04:19 7.2 °C 5.9 °C 1007.7 hPa SSW 5.6 km/h 1.9 km/h 92 % 0 mm
04:24 7.2 °C 6 °C 1007.7 hPa South 3.7 km/h 2.7 km/h 92 % 0 mm
04:29 7.3 °C 6.1 °C 1007.3 hPa North 3.7 km/h 3.1 km/h 92 % 0 mm
04:34 7.8 °C 6.7 °C 1007.3 hPa SSW 5.6 km/h 3.2 km/h 93 % 0 mm
04:39 8.3 °C 7.3 °C 1007.3 hPa SSW 3.7 km/h 2.4 km/h 93 % 0 mm
04:44 8.7 °C 7.7 °C 1007.7 hPa North 5.6 km/h 1.8 km/h 93 % 0 mm
04:49 8.9 °C 7.8 °C 1007.7 hPa North 7.4 km/h 4.2 km/h 93 % 0 mm
04:54 9 °C 7.8 °C 1007.7 hPa North 5.6 km/h 2.7 km/h 92 % 0 mm
04:59 9.1 °C 7.9 °C 1007.7 hPa SSW 5.6 km/h 2.6 km/h 92 % 0 mm
05:04 9.2 °C 7.9 °C 1007.7 hPa SSW 6.4 km/h 5.3 km/h 92 % 0 mm
05:09 9.1 °C 7.7 °C 1007.7 hPa SSW 7.4 km/h 5.8 km/h 91 % 0 mm
05:14 8.8 °C 7.3 °C 1007.7 hPa SSW 6.4 km/h 4.8 km/h 90 % 0 mm
05:19 8.7 °C 7.1 °C 1007.7 hPa North 3.7 km/h 2.3 km/h 90 % 0 mm
05:24 8.3 °C 6.6 °C 1007.7 hPa North 5.6 km/h 2.9 km/h 89 % 0 mm
05:29 8.1 °C 6.3 °C 1008 hPa SSW 3.7 km/h 2.6 km/h 89 % 0 mm
05:34 7.9 °C 6.4 °C 1008 hPa SSW 5.6 km/h 3.5 km/h 90 % 0 mm
05:39 7.9 °C 6.4 °C 1008 hPa North 5.6 km/h 3.2 km/h 90 % 0 mm
05:44 8 °C 6.6 °C 1008 hPa SSW 8 km/h 5.3 km/h 91 % 0 mm
05:49 8.9 °C 7.7 °C 1008 hPa SSW 11.1 km/h 7.1 km/h 92 % 0 mm
05:54 9.4 °C 8 °C 1008 hPa SSW 9.3 km/h 6.8 km/h 91 % 0 mm
05:59 9.7 °C 7.9 °C 1008 hPa SSW 7.4 km/h 6 km/h 89 % 0 mm
06:04 9.7 °C 7.8 °C 1008 hPa SW 11.1 km/h 7.4 km/h 88 % 0 mm
06:09 9.7 °C 7.8 °C 1008.4 hPa SW 9.3 km/h 6.8 km/h 88 % 0 mm
06:14 9.8 °C 7.7 °C 1008.4 hPa SW 9.3 km/h 6 km/h 87 % 0 mm
06:19 9.8 °C 7.7 °C 1008 hPa SW 11.1 km/h 6.9 km/h 87 % 0 mm
06:24 9.8 °C 7.8 °C 1008 hPa SW 11.3 km/h 8.7 km/h 87 % 0 mm
06:29 9.9 °C 7.7 °C 1008 hPa SW 11.1 km/h 5.3 km/h 86 % 0 mm
06:34 9.9 °C 7.7 °C 1008 hPa SW 11.1 km/h 6.4 km/h 86 % 0 mm
06:39 10 °C 7.8 °C 1008 hPa SW 11.3 km/h 6.4 km/h 86 % 0 mm
06:44 10.2 °C 7.8 °C 1008.4 hPa WSW 13 km/h 7.1 km/h 85 % 0 mm
06:49 10.4 °C 7.8 °C 1008.4 hPa WSW 11.1 km/h 7.9 km/h 84 % 0 mm
06:54 10.5 °C 7.7 °C 1008.4 hPa WSW 9.7 km/h 8.2 km/h 83 % 0 mm
06:59 10.7 °C 7.7 °C 1008.4 hPa West 16.7 km/h 10.5 km/h 82 % 0 mm
07:04 10.8 °C 7.8 °C 1008.4 hPa West 14.8 km/h 10.3 km/h 82 % 0 mm
07:09 11 °C 7.9 °C 1008.4 hPa NW 11.3 km/h 11.1 km/h 81 % 0 mm
07:14 11.3 °C 7.9 °C 1008.4 hPa NNW 13 km/h 10.5 km/h 80 % 0 mm
07:19 11.5 °C 8 °C 1008.4 hPa NNW 18.5 km/h 9.3 km/h 79 % 0 mm
07:24 11.7 °C 7.9 °C 1008.4 hPa NNW 14.8 km/h 9.5 km/h 78 % 0 mm
07:29 11.9 °C 8.2 °C 1008.4 hPa North 9.3 km/h 6.6 km/h 78 % 0 mm
07:34 12 °C 8.1 °C 1008.4 hPa NNW 9.7 km/h 7.7 km/h 77 % 0 mm
07:39 12.2 °C 8.3 °C 1008.4 hPa NNW 11.3 km/h 6.9 km/h 77 % 0 mm
07:44 12.4 °C 8.3 °C 1008.4 hPa North 11.1 km/h 6.4 km/h 76 % 0 mm
07:49 12.7 °C 8.4 °C 1008.4 hPa North 11.1 km/h 7.4 km/h 75 % 0 mm
07:54 13.1 °C 8.8 °C 1008.4 hPa North 7.4 km/h 5.6 km/h 75 % 0 mm
07:59 13.5 °C 8.8 °C 1008 hPa North 13 km/h 7.7 km/h 73 % 0 mm
08:04 13.9 °C 9 °C 1008 hPa North 13 km/h 7.7 km/h 72 % 0 mm
08:09 14.4 °C 9.1 °C 1008 hPa North 11.1 km/h 6.6 km/h 70 % 0 mm
08:14 14.9 °C 8.9 °C 1008 hPa NNE 18.5 km/h 12.9 km/h 67 % 0 mm
08:19 15.3 °C 8.6 °C 1007.7 hPa NNE 18.5 km/h 12.1 km/h 64 % 0 mm
08:24 15.7 °C 8.7 °C 1008 hPa NNE 18.5 km/h 13.2 km/h 63 % 0 mm
08:29 16.1 °C 8.8 °C 1007.7 hPa NNE 14.5 km/h 12.7 km/h 62 % 0 mm
08:34 16.4 °C 8.7 °C 1007.7 hPa NNE 19.3 km/h 15.3 km/h 60 % 0 mm
08:39 16.7 °C 8.2 °C 1007.7 hPa North 20.4 km/h 17.1 km/h 57 % 0 mm
08:42 16.9 °C 8.6 °C 1007.7 hPa North 14.8 km/h 11.6 km/h 58 % 0 mm
10:04 20.6 °C 8.6 °C 1006.7 hPa North 18.5 km/h 10.3 km/h 46 % 0 mm
10:09 20.9 °C 8.9 °C 1006.3 hPa North 27.8 km/h 19.3 km/h 46 % 0 mm
10:14 20.8 °C 8.7 °C 1006.3 hPa NNW 25.7 km/h 18.3 km/h 46 % 0 mm
10:19 20.9 °C 8.9 °C 1006.3 hPa NNW 22.2 km/h 13.8 km/h 46 % 0 mm
10:24 21.4 °C 8.7 °C 1006 hPa NNW 25.7 km/h 19.5 km/h 44 % 0 mm
10:29 21.4 °C 8.3 °C 1006 hPa NNW 27.8 km/h 22.2 km/h 43 % 0 mm
10:34 21.5 °C 8.4 °C 1006 hPa North 33.3 km/h 17.9 km/h 43 % 0 mm
10:39 22 °C 8.5 °C 1006 hPa North 22.2 km/h 15.9 km/h 42 % 0 mm
10:44 22.3 °C 8.4 °C 1006 hPa NNW 31.5 km/h 14.3 km/h 41 % 0 mm
10:49 22.6 °C 8.3 °C 1006 hPa North 20.4 km/h 19.3 km/h 40 % 0 mm
10:54 22.8 °C 8.2 °C 1006 hPa NNE 31.5 km/h 19.5 km/h 39 % 0 mm
10:59 22.8 °C 8.1 °C 1006 hPa NNW 24.1 km/h 15.3 km/h 39 % 0 mm
11:04 23.3 °C 8.2 °C 1006 hPa North 31.5 km/h 19.2 km/h 38 % 0 mm
11:09 23.3 °C 8.2 °C 1005.6 hPa NNW 24.1 km/h 17.5 km/h 38 % 0 mm
11:14 23.3 °C 8.2 °C 1005.6 hPa North 33.3 km/h 16.7 km/h 38 % 0 mm
11:19 23.7 °C 8.5 °C 1005.6 hPa North 24.1 km/h 12.1 km/h 38 % 0 mm
11:24 23.9 °C 8.3 °C 1005.6 hPa North 29.6 km/h 13.5 km/h 37 % 0 mm
11:29 24.1 °C 8.1 °C 1005.6 hPa North 24.1 km/h 20.1 km/h 36 % 0 mm
11:34 24.3 °C 7.9 °C 1005.3 hPa North 29.6 km/h 23.5 km/h 35 % 0 mm
11:39 24.3 °C 8.2 °C 1005.3 hPa NNW 24.1 km/h 16.7 km/h 36 % 0 mm
11:44 24.1 °C 8.1 °C 1005 hPa NNW 25.9 km/h 21.4 km/h 36 % 0 mm
11:49 24.4 °C 8.4 °C 1005 hPa North 27.8 km/h 13.4 km/h 36 % 0 mm
11:54 25 °C 8.1 °C 1005.3 hPa NNE 25.9 km/h 17.7 km/h 34 % 0 mm
11:59 25.2 °C 7.7 °C 1005 hPa North 27.8 km/h 15.4 km/h 33 % 0 mm
12:04 25.4 °C 8 °C 1005 hPa North 31.5 km/h 16.1 km/h 33 % 0 mm
12:09 25.8 °C 7.9 °C 1005 hPa North 35.4 km/h 19.2 km/h 32 % 0 mm
12:14 26.2 °C 7.7 °C 1004.6 hPa North 31.5 km/h 15 km/h 31 % 0 mm
12:19 26.2 °C 7.7 °C 1004.6 hPa NNW 25.7 km/h 19 km/h 31 % 0 mm
12:24 26.6 °C 8.1 °C 1004.6 hPa North 29.6 km/h 14.2 km/h 31 % 0 mm
12:29 26.9 °C 7.3 °C 1004.3 hPa North 42.6 km/h 24.5 km/h 29 % 0 mm
12:34 26.6 °C 7.1 °C 1004.3 hPa NNW 27.8 km/h 19.5 km/h 29 % 0 mm
12:39 26.6 °C 7.6 °C 1004.3 hPa NNE 31.5 km/h 20.1 km/h 30 % 0 mm
12:44 26.8 °C 7.8 °C 1003.9 hPa WNW 27.8 km/h 16.1 km/h 30 % 0 mm
12:49 27 °C 7.4 °C 1003.9 hPa NNW 31.5 km/h 16.4 km/h 29 % 0 mm
12:54 27.4 °C 7.3 °C 1003.6 hPa North 20.4 km/h 11.3 km/h 28 % 0 mm
12:59 27.3 °C 7.2 °C 1003.6 hPa NNW 31.5 km/h 20 km/h 28 % 0 mm
13:04 27.1 °C 7.6 °C 1003.6 hPa NNW 31.5 km/h 16.6 km/h 29 % 0 mm
13:09 27.1 °C 7 °C 1003.3 hPa NNW 40.7 km/h 27.5 km/h 28 % 0 mm
13:14 27.1 °C 7 °C 1003.3 hPa North 37 km/h 23.8 km/h 28 % 0 mm
13:19 27.6 °C 7.4 °C 1002.9 hPa NNW 31.5 km/h 20.4 km/h 28 % 0 mm
13:24 27.8 °C 7.1 °C 1002.9 hPa NNW 38.9 km/h 19.3 km/h 27 % 0 mm
13:29 28.3 °C 7.5 °C 1002.6 hPa NNW 27.8 km/h 14.3 km/h 27 % 0 mm
13:34 28.4 °C 6.5 °C 1002.6 hPa NNW 42.6 km/h 29.6 km/h 25 % 0 mm
13:39 28.3 °C 6.4 °C 1002.6 hPa North 37 km/h 28.3 km/h 25 % 0 mm
13:44 28.7 °C 6.7 °C 1002.6 hPa NNW 31.5 km/h 22 km/h 25 % 0 mm
13:49 28.9 °C 6.3 °C 1002.3 hPa North 33.3 km/h 26.4 km/h 24 % 0 mm
13:54 28.8 °C 6.8 °C 1002.3 hPa NNW 40.2 km/h 22.5 km/h 25 % 0 mm
13:59 29 °C 7 °C 1001.9 hPa North 35.2 km/h 16.4 km/h 25 % 0 mm
14:04 29.6 °C 6.8 °C 1001.9 hPa North 33.3 km/h 19.6 km/h 24 % 0 mm
14:09 29.6 °C 6.8 °C 1001.6 hPa NNW 31.5 km/h 17.5 km/h 24 % 0 mm
14:14 29.8 °C 6.4 °C 1001.6 hPa NNW 37 km/h 28.2 km/h 23 % 0 mm
14:19 30.2 °C 6.7 °C 1001.6 hPa NNW 46.3 km/h 25.6 km/h 23 % 0 mm
14:24 30.3 °C 6.2 °C 1001.2 hPa North 42.6 km/h 27.7 km/h 22 % 0 mm
14:29 30.7 °C 6.6 °C 1000.9 hPa North 31.5 km/h 24 km/h 22 % 0 mm
14:34 30.7 °C 5.9 °C 1000.9 hPa NNW 40.7 km/h 27.7 km/h 21 % 0 mm
14:39 30.8 °C 6.6 °C 1000.9 hPa North 24.1 km/h 17.1 km/h 22 % 0 mm
14:44 31.1 °C 6.2 °C 1000.6 hPa NNE 42.6 km/h 25.9 km/h 21 % 0 mm
14:49 31.1 °C 6.2 °C 1000.6 hPa NNW 31.5 km/h 31.1 km/h 21 % 0 mm
14:54 30.9 °C 6 °C 1000.2 hPa NNW 37 km/h 18.2 km/h 21 % 0 mm
14:59 31.3 °C 6.4 °C 1000.2 hPa NE 31.5 km/h 20.8 km/h 21 % 0 mm
15:04 31.4 °C 6.4 °C 999.9 hPa North 38.9 km/h 25.3 km/h 21 % 0 mm
15:09 31.4 °C 5.8 °C 999.9 hPa North 29 km/h 20.4 km/h 20 % 0 mm
15:14 31.4 °C 5.7 °C 999.5 hPa NNE 33.3 km/h 16.6 km/h 20 % 0 mm
15:19 31.4 °C 5.7 °C 999.5 hPa North 33.3 km/h 17.1 km/h 20 % 0 mm
15:24 31.3 °C 5.6 °C 999.5 hPa North 42.6 km/h 26.4 km/h 20 % 0 mm
15:29 31.3 °C 4.9 °C 999.2 hPa North 46.3 km/h 24.6 km/h 19 % 0 mm
15:34 31.2 °C 5.6 °C 998.9 hPa NNE 46.3 km/h 17.7 km/h 20 % 0 mm
15:39 31.7 °C 6 °C 998.9 hPa North 35.2 km/h 17.9 km/h 20 % 0 mm
15:44 31.7 °C 5.2 °C 998.9 hPa North 42.6 km/h 21.1 km/h 19 % 0 mm
15:49 31.4 °C 5.1 °C 998.5 hPa NNW 24.1 km/h 15.9 km/h 19 % 0 mm
15:54 31.7 °C 5.2 °C 998.5 hPa NNW 31.5 km/h 26.7 km/h 19 % 0 mm
15:59 32.2 °C 4.8 °C 998.2 hPa North 49.9 km/h 37.2 km/h 18 % 0 mm
16:04 32.3 °C 4.9 °C 998.2 hPa NW 30.6 km/h 17.7 km/h 18 % 0 mm
16:09 32.6 °C 4.4 °C 997.9 hPa NNE 37 km/h 27.7 km/h 17 % 0 mm
16:14 31.8 °C 4.6 °C 997.9 hPa NNW 38.9 km/h 21.1 km/h 18 % 0 mm
16:19 31.9 °C 4.6 °C 997.5 hPa North 38.9 km/h 20.9 km/h 18 % 0 mm
16:24 32.1 °C 4.8 °C 997.9 hPa NW 29 km/h 22.7 km/h 18 % 0 mm
16:29 32.2 °C 4 °C 997.5 hPa North 37 km/h 20.8 km/h 17 % 0 mm
16:34 32.3 °C 4.1 °C 997.2 hPa North 29 km/h 24.9 km/h 17 % 0 mm
16:39 32.1 °C 4.8 °C 996.8 hPa North 42.6 km/h 26.4 km/h 18 % 0 mm
16:44 31.9 °C 3.8 °C 996.8 hPa NNE 25.9 km/h 29.6 km/h 17 % 0 mm
16:49 31.7 °C 3.7 °C 996.8 hPa NNW 50 km/h 33.6 km/h 17 % 0 mm
16:54 31.7 °C 3.6 °C 996.8 hPa North 41.8 km/h 31.4 km/h 17 % 0 mm
16:59 31.4 °C 3.4 °C 996.8 hPa NNW 35.2 km/h 28.8 km/h 17 % 0 mm
17:04 31.3 °C 4.1 °C 996.5 hPa North 37 km/h 14.5 km/h 18 % 0 mm
17:09 31.3 °C 3.3 °C 996.5 hPa NNW 24.1 km/h 22.5 km/h 17 % 0 mm
17:14 31.4 °C 3.4 °C 996.5 hPa North 35.2 km/h 16.9 km/h 17 % 0 mm
17:19 31.3 °C 3.3 °C 996.2 hPa NNE 29.6 km/h 17.5 km/h 17 % 0 mm
17:24 31.2 °C 3.2 °C 996.2 hPa North 37 km/h 20.1 km/h 17 % 0 mm
17:29 31.2 °C 3.3 °C 996.2 hPa NNW 35.2 km/h 21.2 km/h 17 % 0 mm
17:34 31.3 °C 3.3 °C 996.2 hPa NW 35.2 km/h 11.4 km/h 17 % 0 mm
17:39 31.3 °C 3.3 °C 996.2 hPa North 33.3 km/h 22.5 km/h 17 % 0 mm
17:44 31.2 °C 3.3 °C 996.5 hPa NW 35.4 km/h 20.1 km/h 17 % 0 mm
17:49 31.1 °C 3.2 °C 996.2 hPa NNW 50 km/h 26.6 km/h 17 % 0 mm
17:54 31 °C 3.1 °C 996.2 hPa North 27.8 km/h 15.4 km/h 17 % 0 mm
17:59 30.9 °C 3 °C 996.2 hPa NNW 31.5 km/h 19.5 km/h 17 % 0 mm
18:04 30.8 °C 2.9 °C 996.2 hPa NNW 42.6 km/h 24.6 km/h 17 % 0 mm
18:09 30.7 °C 2.8 °C 995.8 hPa NNW 38.9 km/h 30.1 km/h 17 % 0 mm
18:14 30.7 °C 2.8 °C 995.8 hPa NNW 29.6 km/h 20.4 km/h 17 % 0 mm
18:19 30.7 °C 2 °C 995.8 hPa NNE 50 km/h 24.5 km/h 16 % 0 mm
18:24 30.7 °C 2.8 °C 995.8 hPa NNW 31.5 km/h 18.5 km/h 17 % 0 mm
18:29 30.7 °C 2.8 °C 995.8 hPa North 40.7 km/h 20.3 km/h 17 % 0 mm
18:34 30.7 °C 2.8 °C 995.8 hPa North 46.3 km/h 24.8 km/h 17 % 0 mm
18:39 30.7 °C 2.8 °C 995.8 hPa NNW 29.6 km/h 25.3 km/h 17 % 0 mm
18:44 30.7 °C 2.8 °C 995.5 hPa NW 33.3 km/h 17.9 km/h 17 % 0 mm
18:49 30.7 °C 2.8 °C 995.5 hPa North 33.3 km/h 20.4 km/h 17 % 0 mm
18:54 30.6 °C 1.9 °C 995.5 hPa North 35.4 km/h 23 km/h 16 % 0 mm
18:59 30.6 °C 1.9 °C 995.8 hPa NNW 31.5 km/h 18.8 km/h 16 % 0 mm
19:04 30.6 °C 1.9 °C 995.8 hPa NNW 48.1 km/h 29.3 km/h 16 % 0 mm
19:09 30.6 °C 1.9 °C 995.8 hPa North 29 km/h 23 km/h 16 % 0 mm
19:14 30.6 °C 1.9 °C 995.8 hPa North 44.4 km/h 15.8 km/h 16 % 0 mm
19:19 30.5 °C 1.8 °C 995.8 hPa North 33.3 km/h 21.1 km/h 16 % 0 mm
19:24 30.4 °C 0.8 °C 995.8 hPa North 48.1 km/h 37 km/h 15 % 0 mm
19:29 30.2 °C 1.6 °C 995.8 hPa NNW 29.6 km/h 16.9 km/h 16 % 0 mm
19:34 30.2 °C 0.7 °C 995.8 hPa North 40.7 km/h 22.9 km/h 15 % 0 mm
19:39 30.1 °C 1.5 °C 995.8 hPa North 25.9 km/h 16.9 km/h 16 % 0 mm
19:44 30.1 °C 1.5 °C 995.8 hPa NNW 48.1 km/h 25.6 km/h 16 % 0 mm
19:49 30 °C 1.4 °C 995.8 hPa NW 42.6 km/h 28.5 km/h 16 % 0 mm
19:54 29.9 °C 1.3 °C 995.8 hPa NNW 50 km/h 24.9 km/h 16 % 0 mm
19:59 29.9 °C 1.3 °C 996.2 hPa NNW 31.5 km/h 21.1 km/h 16 % 0 mm
20:04 29.4 °C 2.6 °C 995.8 hPa NNW 29.6 km/h 10.5 km/h 18 % 0 mm
20:09 29 °C 2.3 °C 995.5 hPa NW 42.6 km/h 34.9 km/h 18 % 0 mm
20:14 29.1 °C 2.3 °C 995.5 hPa North 18.5 km/h 13 km/h 18 % 0 mm
20:19 28.9 °C 3.7 °C 996.2 hPa West 68.6 km/h 38.6 km/h 20 % 0 mm
20:24 27.7 °C 5.9 °C 996.2 hPa NW 42.6 km/h 26.9 km/h 25 % 0 mm
20:29 26.7 °C 7.2 °C 996.8 hPa NW 46.7 km/h 34.9 km/h 29 % 0 mm
20:34 25.8 °C 7.8 °C 996.8 hPa WNW 42.6 km/h 35.9 km/h 32 % 0 mm
20:39 25.2 °C 8.7 °C 996.8 hPa NW 46.7 km/h 33.5 km/h 35 % 0 mm
20:44 24.7 °C 9.1 °C 996.8 hPa WNW 48.1 km/h 34.6 km/h 37 % 0 mm
20:49 24.4 °C 9.2 °C 997.2 hPa NW 43.5 km/h 31.4 km/h 38 % 0 mm
20:54 24.4 °C 9.2 °C 996.8 hPa NW 44.4 km/h 29.6 km/h 38 % 0 mm
20:59 24.3 °C 8.7 °C 996.8 hPa NNW 35.2 km/h 25.9 km/h 37 % 0 mm
21:04 24.2 °C 9.3 °C 996.5 hPa North 27.8 km/h 9.8 km/h 39 % 0 mm
21:09 23.8 °C 9.1 °C 996.2 hPa NW 31.5 km/h 17.1 km/h 39 % 0 mm
21:14 23.7 °C 8.9 °C 996.2 hPa NNW 30.6 km/h 22 km/h 39 % 0 mm
21:19 23.6 °C 9.2 °C 996.2 hPa NNW 25.9 km/h 12.1 km/h 40 % 0 mm
21:24 23.5 °C 9.1 °C 996.2 hPa NNW 27.8 km/h 19.5 km/h 40 % 0 mm
21:29 23.4 °C 9.4 °C 996.2 hPa NW 18.5 km/h 10.1 km/h 41 % 0 mm
21:34 23.4 °C 9.4 °C 996.5 hPa NNW 20.4 km/h 16.9 km/h 41 % 0 mm
21:39 23.3 °C 9.3 °C 996.8 hPa NW 29.6 km/h 16.1 km/h 41 % 0 mm
21:44 23.3 °C 9.3 °C 997.2 hPa NW 18.5 km/h 15.8 km/h 41 % 0 mm
21:49 23.4 °C 9.7 °C 997.5 hPa WNW 38.9 km/h 22.9 km/h 42 % 0 mm
21:54 21.4 °C 12 °C 997.5 hPa WNW 37 km/h 25.4 km/h 55 % 0 mm
21:59 20.3 °C 12.3 °C 997.5 hPa West 33.8 km/h 32.5 km/h 60 % 0 mm
22:04 19.8 °C 12.6 °C 997.2 hPa WNW 38.9 km/h 23.2 km/h 63 % 0 mm
22:09 19.5 °C 12.7 °C 997.2 hPa North 22.5 km/h 21.2 km/h 65 % 0 mm
22:14 19.2 °C 12.7 °C 997.2 hPa North 30.6 km/h 20.1 km/h 66 % 0 mm
22:19 19.3 °C 12.6 °C 997.2 hPa NW 24.1 km/h 14.6 km/h 65 % 0 mm
22:24 19.4 °C 12.4 °C 996.8 hPa NNW 18.5 km/h 8.4 km/h 64 % 0 mm
22:29 19.5 °C 12.7 °C 996.5 hPa NNW 6.4 km/h 7.9 km/h 65 % 0 mm
22:34 19.4 °C 12.7 °C 996.5 hPa NNW 9.3 km/h 6.4 km/h 65 % 0 mm
22:39 19.3 °C 13 °C 996.5 hPa North 13 km/h 6.9 km/h 67 % 0 mm
22:44 19.1 °C 13.1 °C 996.2 hPa NNW 5.6 km/h 5.6 km/h 68 % 0 mm
22:49 19 °C 13.2 °C 995.8 hPa NNW 5.6 km/h 2.9 km/h 69 % 0 mm
22:54 18.9 °C 13.3 °C 995.8 hPa NNW 5.6 km/h 3.2 km/h 70 % 0 mm
22:59 18.8 °C 13.4 °C 995.8 hPa NNW 4.8 km/h 3.5 km/h 71 % 0 mm
23:04 18.7 °C 13.3 °C 996.5 hPa NW 12.9 km/h 10 km/h 71 % 0 mm
23:09 18.5 °C 13.3 °C 996.5 hPa NW 8 km/h 4.2 km/h 72 % 0 mm
23:14 18.5 °C 13.3 °C 996.8 hPa NW 9.3 km/h 6.3 km/h 72 % 0 mm
23:19 18.6 °C 13.2 °C 997.2 hPa NW 20.4 km/h 14.6 km/h 71 % 0 mm
23:24 19.4 °C 12.4 °C 997.5 hPa WNW 40.7 km/h 24 km/h 64 % 0 mm
23:29 19.8 °C 12.8 °C 997.2 hPa WNW 31.5 km/h 14.5 km/h 64 % 0 mm
23:34 19.7 °C 12.9 °C 995.5 hPa North 11.1 km/h 1 km/h 65 % 0.41 mm
23:39 19.1 °C 13.2 °C 996.2 hPa NW 20.9 km/h 14.2 km/h 69 % 0.41 mm
23:44 18.6 °C 13.2 °C 996.2 hPa North 7.4 km/h 3.4 km/h 71 % 0.41 mm
23:49 18.3 °C 13.2 °C 996.2 hPa North 9.3 km/h 6.4 km/h 72 % 0.41 mm
23:54 18.1 °C 13.3 °C 996.5 hPa NW 14.8 km/h 10.6 km/h 74 % 0.41 mm
23:59 18 °C 13.3 °C 996.5 hPa NW 16.1 km/h 7.1 km/h 74 % 0.41 mm
Ararat Weather
Compliments of Weather Underground - 2.25 mb
Click here to send mail.


ABOUT

Live weather data from Ararat, Victoria, Australia, 3377
Data uploaded from Cumulus every 5 minutes to Weather Underground.
This site then downloads the raw data for formatting and display.
Metric and imperial data can be displayed. Graphs and historical data available.
Includes Sun and Moon times and rain image live from BOM.

Check out Ararat Weather on Facebook, Twitter and Google +

Help support ongoing costs by checking out the ads





Follow @AraratWeather